Time;durP1;ratioP1;P1;durP2;ratioP2;P2;SDS_P1;SDS_P2;PMS_P1;PMS_P2;Temp;Humidity;BMP_temperature;BMP_pressure;BME280_temperature;BME280_humidity;BME280_pressure;Samples;Min_cycle;Max_cycle;Signal;HPM_P1;HPM_P2
2022/06/16 00:01:06;;;;;;;6.93;3.83;;;;;;;;;;5055470;28;20021;-86
2022/06/16 00:03:32;;;;;;;6.60;4.35;;;;;;;;;;5053873;28;20029;-86
2022/06/16 00:05:59;;;;;;;6.30;3.97;;;;;;;;;;5054473;28;20025;-86
2022/06/16 00:08:25;;;;;;;6.22;4.40;;;;;;;;;;5053191;28;20025;-86
2022/06/16 00:13:37;;;;;;;6.78;4.43;;;;;;;;;;5075131;28;20024;-87
2022/06/16 00:16:03;;;;;;;5.60;4.30;;;;;;;;;;5054360;28;20505;-87
2022/06/16 00:18:29;;;;;;;6.97;4.30;;;;;;;;;;5055302;28;20021;-86
2022/06/16 00:20:55;;;;;;;6.85;3.97;;;;;;;;;;5033859;28;20029;-86
2022/06/16 00:23:22;;;;;;;7.05;4.13;;;;;;;;;;5050270;28;20028;-86
2022/06/16 00:25:48;;;;;;;6.32;3.95;;;;;;;;;;5050079;28;20386;-87
2022/06/16 00:28:14;;;;;;;5.63;4.03;;;;;;;;;;5034751;28;20696;-85
2022/06/16 00:30:40;;;;;;;5.25;4.35;;;;;;;;;;5038434;28;20021;-86
2022/06/16 00:33:06;;;;;;;7.05;5.20;;;;;;;;;;5054648;28;20025;-87
2022/06/16 00:35:32;;;;;;;13.32;4.90;;;;;;;;;;5055755;28;20029;-87
2022/06/16 00:37:58;;;;;;;7.07;4.68;;;;;;;;;;5073268;28;20017;-89
2022/06/16 00:40:25;;;;;;;7.00;4.60;;;;;;;;;;5060786;28;20124;-87
2022/06/16 00:42:51;;;;;;;8.55;5.30;;;;;;;;;;5053620;28;20029;-87
2022/06/16 00:45:36;;;;;;;8.73;5.03;;;;;;;;;;5055165;28;20032;-87
2022/06/16 00:48:02;;;;;;;9.82;5.20;;;;;;;;;;5054986;28;20078;-87
2022/06/16 00:50:28;;;;;;;9.35;5.80;;;;;;;;;;5053265;28;20025;-87
2022/06/16 00:52:54;;;;;;;6.40;4.55;;;;;;;;;;5055326;28;20024;-87
2022/06/16 00:55:20;;;;;;;8.68;4.75;;;;;;;;;;5054189;28;20025;-87
2022/06/16 00:57:49;;;;;;;17.77;5.30;;;;;;;;;;5054576;28;20033;-87
2022/06/16 01:00:22;;;;;;;7.82;4.18;;;;;;;;;;5054154;28;20559;-86
2022/06/16 01:02:48;;;;;;;7.47;4.43;;;;;;;;;;5053407;28;20037;-87
2022/06/16 01:05:14;;;;;;;10.55;5.25;;;;;;;;;;5063451;28;20029;-87
2022/06/16 01:07:42;;;;;;;7.70;4.70;;;;;;;;;;5054837;28;20031;-87
2022/06/16 01:10:08;;;;;;;10.25;5.50;;;;;;;;;;5052546;28;20031;-86
2022/06/16 01:15:31;;;;;;;8.13;5.28;;;;;;;;;;5053963;28;20044;-86
2022/06/16 01:18:09;;;;;;;7.63;4.63;;;;;;;;;;5053888;28;20018;-87
2022/06/16 01:20:37;;;;;;;12.07;4.90;;;;;;;;;;5053285;28;20549;-87
2022/06/16 01:23:22;;;;;;;10.35;4.85;;;;;;;;;;5052228;28;20037;-88
2022/06/16 01:25:51;;;;;;;7.45;5.00;;;;;;;;;;5034013;28;20033;-87
2022/06/16 01:28:22;;;;;;;7.15;5.20;;;;;;;;;;5037887;28;20116;-88
2022/06/16 01:31:01;;;;;;;5.70;4.50;;;;;;;;;;5038726;28;20032;-88
2022/06/16 01:33:27;;;;;;;9.82;5.57;;;;;;;;;;5054887;28;20057;-86
2022/06/16 01:36:13;;;;;;;7.72;4.93;;;;;;;;;;5057495;28;20032;-87
2022/06/16 01:38:39;;;;;;;6.40;5.18;;;;;;;;;;5043453;28;20037;-86
2022/06/16 01:41:11;;;;;;;6.43;4.97;;;;;;;;;;5038894;28;20079;-86
2022/06/16 01:43:43;;;;;;;6.65;4.68;;;;;;;;;;5033822;28;20030;-87
2022/06/16 01:46:15;;;;;;;6.43;4.65;;;;;;;;;;5034684;28;20028;-86
2022/06/16 01:48:43;;;;;;;7.68;5.15;;;;;;;;;;5034466;28;20033;-86
2022/06/16 01:51:11;;;;;;;8.02;4.95;;;;;;;;;;5039208;28;20036;-86
2022/06/16 01:53:40;;;;;;;9.60;5.15;;;;;;;;;;5053806;28;20032;-85
2022/06/16 01:56:11;;;;;;;6.10;5.07;;;;;;;;;;5052211;28;20500;-86
2022/06/16 01:58:40;;;;;;;6.05;4.90;;;;;;;;;;5052479;28;20032;-85
2022/06/16 02:01:08;;;;;;;10.88;5.32;;;;;;;;;;5053250;28;20528;-86
2022/06/16 02:03:37;;;;;;;7.65;4.75;;;;;;;;;;5052048;28;20044;-84
2022/06/16 02:06:12;;;;;;;8.00;5.18;;;;;;;;;;5052141;28;20507;-85
2022/06/16 02:08:40;;;;;;;8.10;4.80;;;;;;;;;;5052062;28;20044;-85
2022/06/16 02:11:18;;;;;;;6.97;5.13;;;;;;;;;;5052399;28;20022;-86
2022/06/16 02:13:49;;;;;;;8.13;5.07;;;;;;;;;;5053630;28;20060;-86
2022/06/16 02:16:20;;;;;;;10.93;4.80;;;;;;;;;;5057228;28;20373;-86
2022/06/16 02:18:46;;;;;;;6.53;4.32;;;;;;;;;;5055440;28;20032;-86
2022/06/16 02:21:24;;;;;;;8.27;5.28;;;;;;;;;;5052182;28;20036;-86
2022/06/16 02:23:50;;;;;;;6.93;4.38;;;;;;;;;;5056314;28;20090;-86
2022/06/16 02:26:16;;;;;;;6.22;4.80;;;;;;;;;;5056379;28;20100;-85
2022/06/16 02:28:44;;;;;;;6.30;4.72;;;;;;;;;;5054508;28;20500;-86
2022/06/16 02:31:10;;;;;;;10.98;4.63;;;;;;;;;;5054893;28;20033;-86
2022/06/16 02:33:45;;;;;;;7.55;4.63;;;;;;;;;;5067596;28;20035;-86
2022/06/16 02:36:11;;;;;;;7.28;5.38;;;;;;;;;;5066681;28;20025;-86
2022/06/16 02:38:43;;;;;;;9.18;5.43;;;;;;;;;;5057179;28;20032;-86
2022/06/16 02:41:19;;;;;;;13.25;6.40;;;;;;;;;;5056532;28;20381;-86
2022/06/16 02:43:51;;;;;;;18.73;5.85;;;;;;;;;;5055501;28;20032;-86
2022/06/16 02:46:24;;;;;;;10.18;5.53;;;;;;;;;;5055675;28;20025;-86
2022/06/16 02:49:00;;;;;;;10.40;5.85;;;;;;;;;;5055996;28;20496;-84
2022/06/16 02:51:29;;;;;;;10.63;5.30;;;;;;;;;;5057609;28;20026;-85
2022/06/16 02:54:20;;;;;;;6.47;5.28;;;;;;;;;;5055730;28;20017;-86
2022/06/16 02:57:01;;;;;;;9.85;6.03;;;;;;;;;;5054722;28;20554;-85
2022/06/16 02:59:27;;;;;;;;;;;;;;;;;;5054848;28;20032;-87
2022/06/16 03:01:59;;;;;;;8.38;5.15;;;;;;;;;;5061822;28;19892;-87
2022/06/16 03:04:33;;;;;;;7.90;4.93;;;;;;;;;;5077155;28;20100;-88
2022/06/16 03:06:59;;;;;;;11.45;4.53;;;;;;;;;;5073071;28;20472;-86
2022/06/16 03:09:25;;;;;;;8.77;4.95;;;;;;;;;;5054086;28;20104;-86
2022/06/16 03:11:51;;;;;;;7.75;4.57;;;;;;;;;;5063801;28;20056;-85
2022/06/16 03:14:19;;;;;;;10.25;5.68;;;;;;;;;;5055091;28;20048;-86
2022/06/16 03:16:45;;;;;;;7.10;4.80;;;;;;;;;;5055672;28;20025;-86
2022/06/16 03:19:11;;;;;;;6.13;4.68;;;;;;;;;;5055462;28;20401;-85
2022/06/16 03:21:37;;;;;;;9.00;4.93;;;;;;;;;;5054370;28;20029;-87
2022/06/16 03:24:04;;;;;;;6.65;4.88;;;;;;;;;;5054013;28;20050;-86
2022/06/16 03:26:30;;;;;;;10.82;5.25;;;;;;;;;;5053782;28;20036;-86
2022/06/16 03:28:56;;;;;;;6.40;4.70;;;;;;;;;;5054657;28;20053;-85
2022/06/16 03:31:22;;;;;;;7.15;4.85;;;;;;;;;;5053305;28;20488;-86
2022/06/16 03:33:48;;;;;;;8.38;5.22;;;;;;;;;;5053465;28;20571;-87
2022/06/16 03:36:14;;;;;;;7.63;4.57;;;;;;;;;;5053356;28;20028;-87
2022/06/16 03:38:43;;;;;;;7.20;4.93;;;;;;;;;;5061802;28;20013;-86
2022/06/16 03:41:10;;;;;;;6.68;4.40;;;;;;;;;;5062351;28;20033;-87
2022/06/16 03:43:36;;;;;;;8.55;5.43;;;;;;;;;;5053067;28;20029;-87
2022/06/16 03:46:02;;;;;;;8.13;4.72;;;;;;;;;;5053073;28;20079;-87
2022/06/16 03:48:28;;;;;;;7.78;4.60;;;;;;;;;;5052803;28;20417;-86
2022/06/16 03:50:54;;;;;;;8.25;4.65;;;;;;;;;;5052575;28;20029;-87
2022/06/16 03:53:20;;;;;;;8.98;4.75;;;;;;;;;;5053513;28;20116;-87
2022/06/16 03:55:46;;;;;;;6.18;4.40;;;;;;;;;;5054790;28;20110;-87
2022/06/16 03:58:13;;;;;;;9.15;4.97;;;;;;;;;;5054207;28;20275;-87
2022/06/16 04:00:39;;;;;;;10.45;4.95;;;;;;;;;;5054578;28;20029;-87
2022/06/16 04:05:50;;;;;;;7.53;4.95;;;;;;;;;;5036135;28;20048;-92
2022/06/16 04:08:20;;;;;;;8.75;4.88;;;;;;;;;;5018061;28;20116;-93
2022/06/16 04:10:46;;;;;;;7.40;5.10;;;;;;;;;;5017749;28;20037;-92
2022/06/16 04:13:12;;;;;;;12.07;5.25;;;;;;;;;;5018488;28;20018;-93
2022/06/16 04:15:38;;;;;;;7.13;4.90;;;;;;;;;;5018298;28;20024;-94
2022/06/16 04:18:04;;;;;;;6.88;4.80;;;;;;;;;;5018385;28;20017;-91
2022/06/16 04:20:31;;;;;;;8.95;4.45;;;;;;;;;;5017729;28;20029;-91
2022/06/16 04:22:57;;;;;;;8.55;5.15;;;;;;;;;;5019535;28;20029;-91
2022/06/16 04:25:29;;;;;;;8.70;5.38;;;;;;;;;;5018045;28;20238;-92
2022/06/16 04:27:55;;;;;;;11.23;5.38;;;;;;;;;;5018174;28;20037;-91
2022/06/16 04:30:21;;;;;;;7.70;4.88;;;;;;;;;;5016297;28;20036;-90
2022/06/16 04:32:47;;;;;;;8.35;5.13;;;;;;;;;;5034282;28;20026;-90
2022/06/16 04:35:13;;;;;;;10.20;5.43;;;;;;;;;;5034929;28;20563;-91
2022/06/16 04:37:39;;;;;;;8.82;5.90;;;;;;;;;;5018023;28;20031;-91
2022/06/16 04:40:05;;;;;;;9.00;5.32;;;;;;;;;;5018581;28;20604;-91
2022/06/16 04:42:31;;;;;;;5.75;4.47;;;;;;;;;;5036295;28;20059;-91
2022/06/16 04:44:57;;;;;;;8.98;5.68;;;;;;;;;;5035533;28;20029;-92
2022/06/16 04:47:23;;;;;;;9.60;4.97;;;;;;;;;;5018097;28;20037;-92
2022/06/16 04:49:49;;;;;;;9.07;5.25;;;;;;;;;;5016963;28;20029;-90
2022/06/16 04:52:17;;;;;;;9.07;5.10;;;;;;;;;;5034230;28;20030;-90
2022/06/16 04:54:47;;;;;;;8.13;5.25;;;;;;;;;;5017502;28;20116;-93
2022/06/16 04:57:13;;;;;;;9.27;5.05;;;;;;;;;;5035217;28;20021;-92
2022/06/16 04:59:39;;;;;;;8.35;5.45;;;;;;;;;;5035025;28;20113;-91
2022/06/16 05:02:06;;;;;;;11.30;4.90;;;;;;;;;;5016042;28;20520;-88
2022/06/16 05:04:32;;;;;;;12.07;5.70;;;;;;;;;;5033051;28;20128;-89
2022/06/16 05:06:58;;;;;;;7.35;5.32;;;;;;;;;;5033797;28;20022;-90
2022/06/16 05:09:24;;;;;;;8.52;5.43;;;;;;;;;;5015918;28;20103;-90
2022/06/16 05:11:51;;;;;;;7.90;4.97;;;;;;;;;;5017909;28;20393;-90
2022/06/16 05:14:16;;;;;;;7.32;5.68;;;;;;;;;;5016332;28;20116;-91
2022/06/16 05:16:43;;;;;;;9.90;5.78;;;;;;;;;;5033046;28;20060;-92
2022/06/16 05:19:09;;;;;;;7.60;5.50;;;;;;;;;;5011055;28;20022;-92
2022/06/16 05:21:35;;;;;;;15.65;6.30;;;;;;;;;;4996657;28;20041;-92
2022/06/16 05:24:01;;;;;;;7.45;5.53;;;;;;;;;;4997310;28;20033;-91
2022/06/16 05:26:28;;;;;;;8.20;5.57;;;;;;;;;;4995528;28;20029;-91
2022/06/16 05:28:54;;;;;;;10.65;6.15;;;;;;;;;;4996451;28;20025;-92
2022/06/16 05:31:20;;;;;;;8.55;5.82;;;;;;;;;;4996509;28;20026;-91
2022/06/16 05:33:46;;;;;;;9.50;5.80;;;;;;;;;;5010467;28;20022;-91
2022/06/16 05:36:13;;;;;;;10.05;5.68;;;;;;;;;;5015940;28;20021;-90
2022/06/16 05:38:39;;;;;;;8.25;5.50;;;;;;;;;;5014899;28;20017;-90
2022/06/16 05:41:10;;;;;;;7.38;5.53;;;;;;;;;;5014547;28;20410;-92
2022/06/16 05:43:37;;;;;;;9.30;6.60;;;;;;;;;;5032797;28;20049;-92
2022/06/16 05:46:04;;;;;;;9.43;6.55;;;;;;;;;;5014554;28;20120;-90
2022/06/16 05:48:31;;;;;;;7.13;5.28;;;;;;;;;;5015818;28;20025;-90
2022/06/16 05:51:02;;;;;;;9.57;5.18;;;;;;;;;;5018364;28;20374;-90
2022/06/16 05:53:28;;;;;;;7.78;6.15;;;;;;;;;;5018789;28;20025;-90
2022/06/16 05:55:54;;;;;;;11.40;5.85;;;;;;;;;;5036392;28;20080;-91
2022/06/16 05:58:20;;;;;;;8.63;6.22;;;;;;;;;;5018158;28;20025;-92
2022/06/16 06:00:46;;;;;;;8.43;5.82;;;;;;;;;;5018385;28;20030;-91
2022/06/16 06:03:12;;;;;;;9.23;5.07;;;;;;;;;;5036339;28;20036;-93
2022/06/16 06:05:38;;;;;;;10.32;5.18;;;;;;;;;;5018865;28;20021;-92
2022/06/16 06:16:37;;;;;;;5.22;3.65;;;;;;;;;;5036731;28;20394;-91
2022/06/16 06:19:26;;;;;;;4.22;3.45;;;;;;;;;;5032982;28;20390;-93
2022/06/16 06:22:05;;;;;;;7.85;3.38;;;;;;;;;;5016808;28;20022;-92
2022/06/16 06:24:36;;;;;;;4.55;3.28;;;;;;;;;;4999156;28;20034;-91
2022/06/16 06:27:04;;;;;;;5.93;3.53;;;;;;;;;;4998695;28;20632;-91
2022/06/16 06:29:30;;;;;;;7.38;3.58;;;;;;;;;;4998901;28;20037;-91
2022/06/16 06:31:57;;;;;;;6.30;3.30;;;;;;;;;;4998595;28;20221;-91
2022/06/16 06:34:23;;;;;;;7.30;3.42;;;;;;;;;;4998698;28;20053;-92
2022/06/16 06:36:49;;;;;;;6.18;2.88;;;;;;;;;;5001097;28;20044;-92
2022/06/16 06:39:15;;;;;;;3.33;2.65;;;;;;;;;;5005051;28;20026;-93
2022/06/16 06:41:41;;;;;;;7.05;3.47;;;;;;;;;;5013489;28;20025;-93
2022/06/16 06:44:07;;;;;;;10.18;3.10;;;;;;;;;;5038906;28;20036;-92
2022/06/16 06:46:33;;;;;;;7.10;2.85;;;;;;;;;;5035970;28;20029;-91
2022/06/16 06:48:59;;;;;;;6.18;3.25;;;;;;;;;;5018143;28;20502;-91
2022/06/16 06:51:25;;;;;;;6.78;3.28;;;;;;;;;;5018206;28;20029;-91
2022/06/16 06:53:51;;;;;;;6.60;3.42;;;;;;;;;;5019386;28;20045;-91
2022/06/16 06:56:19;;;;;;;5.88;3.22;;;;;;;;;;5018247;28;20032;-91
2022/06/16 06:58:47;;;;;;;9.50;3.47;;;;;;;;;;5017486;28;20389;-89
2022/06/16 07:01:12;;;;;;;5.20;3.00;;;;;;;;;;5017416;28;20032;-91
2022/06/16 07:03:38;;;;;;;7.05;3.03;;;;;;;;;;5017729;28;20124;-91
2022/06/16 07:06:05;;;;;;;5.85;3.22;;;;;;;;;;5035034;28;20033;-92
2022/06/16 07:08:31;;;;;;;7.45;2.92;;;;;;;;;;5035510;28;20085;-91
2022/06/16 07:10:58;;;;;;;3.70;3.00;;;;;;;;;;5017309;28;20025;-91
2022/06/16 07:13:24;;;;;;;7.68;3.30;;;;;;;;;;5017186;28;20021;-91
2022/06/16 07:15:50;;;;;;;5.60;3.15;;;;;;;;;;5033478;28;20030;-92
2022/06/16 07:18:16;;;;;;;5.13;3.35;;;;;;;;;;5014103;28;20034;-91
2022/06/16 07:20:42;;;;;;;8.07;3.10;;;;;;;;;;5016999;28;20466;-90
2022/06/16 07:23:08;;;;;;;7.85;3.47;;;;;;;;;;5016773;28;20030;-90
2022/06/16 07:25:35;;;;;;;10.38;3.08;;;;;;;;;;5034818;28;20079;-91
2022/06/16 07:28:01;;;;;;;7.38;2.83;;;;;;;;;;5034272;28;20025;-88
2022/06/16 07:30:27;;;;;;;5.95;2.85;;;;;;;;;;5016246;28;20029;-91
2022/06/16 07:32:53;;;;;;;7.70;3.28;;;;;;;;;;5016675;28;20022;-90
2022/06/16 07:35:20;;;;;;;7.25;3.40;;;;;;;;;;5016808;28;20018;-91
2022/06/16 07:37:47;;;;;;;4.05;3.40;;;;;;;;;;5032786;28;20569;-91
2022/06/16 07:40:15;;;;;;;3.42;3.00;;;;;;;;;;5034323;28;20393;-91
2022/06/16 07:42:41;;;;;;;8.75;3.60;;;;;;;;;;5034471;28;20037;-92
2022/06/16 07:45:08;;;;;;;11.10;2.95;;;;;;;;;;5034570;28;20113;-91
2022/06/16 07:47:34;;;;;;;5.40;2.67;;;;;;;;;;5016800;28;20030;-91
2022/06/16 07:50:01;;;;;;;4.57;2.90;;;;;;;;;;5016126;28;20332;-92
2022/06/16 07:52:28;;;;;;;4.75;2.78;;;;;;;;;;5016235;28;20021;-90
2022/06/16 07:54:54;;;;;;;4.32;2.97;;;;;;;;;;5016340;28;20384;-91
2022/06/16 07:57:21;;;;;;;5.00;2.80;;;;;;;;;;5016226;28;20061;-90
2022/06/16 07:59:49;;;;;;;9.32;3.30;;;;;;;;;;5016397;28;20036;-91
2022/06/16 08:02:15;;;;;;;5.22;2.83;;;;;;;;;;5016130;28;20421;-91
2022/06/16 08:04:41;;;;;;;5.85;3.10;;;;;;;;;;5034750;28;20037;-92
2022/06/16 08:07:07;;;;;;;4.65;2.60;;;;;;;;;;5048882;28;20032;-93
2022/06/16 08:09:33;;;;;;;5.88;3.03;;;;;;;;;;5056313;28;20040;-92
2022/06/16 08:12:08;;;;;;;5.65;2.90;;;;;;;;;;5046952;28;20010;-92
2022/06/16 08:14:37;;;;;;;6.45;3.20;;;;;;;;;;5036025;28;20006;-92
2022/06/16 08:17:24;;;;;;;6.38;3.10;;;;;;;;;;5033365;28;20026;-91
2022/06/16 08:19:51;;;;;;;5.45;2.50;;;;;;;;;;5009407;28;20121;-90
2022/06/16 08:22:17;;;;;;;4.15;2.25;;;;;;;;;;5019241;28;20034;-93
2022/06/16 08:24:43;;;;;;;4.95;2.53;;;;;;;;;;5046984;28;20030;-92
2022/06/16 08:27:10;;;;;;;7.45;2.50;;;;;;;;;;5038161;28;20048;-93
2022/06/16 08:29:36;;;;;;;5.75;2.70;;;;;;;;;;5044875;28;20089;-91
2022/06/16 08:32:02;;;;;;;5.15;3.13;;;;;;;;;;5028962;28;20045;-93
2022/06/16 08:34:28;;;;;;;8.00;2.65;;;;;;;;;;5035074;28;20032;-89
2022/06/16 08:36:54;;;;;;;6.25;2.63;;;;;;;;;;5016980;28;20025;-91
2022/06/16 08:39:20;;;;;;;5.20;2.53;;;;;;;;;;5034492;28;20028;-91
2022/06/16 08:41:51;;;;;;;3.17;2.65;;;;;;;;;;5015555;28;20022;-91
2022/06/16 08:44:25;;;;;;;5.80;2.30;;;;;;;;;;5015678;28;20026;-91
2022/06/16 08:47:02;;;;;;;9.98;2.80;;;;;;;;;;5016181;28;20298;-91
2022/06/16 08:49:33;;;;;;;6.82;2.60;;;;;;;;;;5015948;28;20022;-89
2022/06/16 08:52:08;;;;;;;4.85;2.60;;;;;;;;;;5041794;28;20005;-94
2022/06/16 08:54:44;;;;;;;6.97;2.97;;;;;;;;;;5040525;28;20112;-92
2022/06/16 08:57:10;;;;;;;4.00;2.80;;;;;;;;;;5040582;28;20063;-92
2022/06/16 08:59:43;;;;;;;5.70;3.08;;;;;;;;;;5040619;28;20025;-92
2022/06/16 09:02:39;;;;;;;8.95;2.90;;;;;;;;;;5057486;28;20021;-93
2022/06/16 09:05:06;;;;;;;8.52;2.97;;;;;;;;;;5036547;28;20056;-92
2022/06/16 09:07:38;;;;;;;7.03;3.03;;;;;;;;;;5057473;28;20016;-93
2022/06/16 09:10:16;;;;;;;8.07;2.83;;;;;;;;;;5057231;28;20037;-91
2022/06/16 09:13:02;;;;;;;3.60;2.67;;;;;;;;;;5026028;28;20022;-92
2022/06/16 09:15:47;;;;;;;3.85;2.72;;;;;;;;;;5021066;28;20046;-93
2022/06/16 09:18:22;;;;;;;4.55;2.53;;;;;;;;;;5020728;28;20040;-92
2022/06/16 09:20:50;;;;;;;4.60;2.70;;;;;;;;;;5055856;28;20013;-92
2022/06/16 09:23:37;;;;;;;4.80;2.50;;;;;;;;;;5060111;28;20025;-92
2022/06/16 09:26:09;;;;;;;3.25;2.50;;;;;;;;;;5044413;28;20017;-93
2022/06/16 09:28:44;;;;;;;7.55;3.08;;;;;;;;;;5044490;28;20013;-92
2022/06/16 09:31:14;;;;;;;8.30;2.85;;;;;;;;;;5061147;28;20037;-93
2022/06/16 09:33:42;;;;;;;6.95;2.85;;;;;;;;;;5044356;28;20017;-91
2022/06/16 09:36:14;;;;;;;7.60;2.85;;;;;;;;;;5060234;28;20017;-92
2022/06/16 09:38:47;;;;;;;3.72;2.47;;;;;;;;;;5044452;28;20001;-92
2022/06/16 09:44:07;;;;;;;4.78;2.67;;;;;;;;;;5061234;28;20033;-92
2022/06/16 09:46:35;;;;;;;5.65;2.72;;;;;;;;;;5043954;28;20021;-92
2022/06/16 09:49:04;;;;;;;6.20;2.90;;;;;;;;;;5061019;28;20017;-93
2022/06/16 09:51:38;;;;;;;4.78;2.70;;;;;;;;;;5043786;28;20021;-92
2022/06/16 09:54:24;;;;;;;3.88;2.70;;;;;;;;;;5060983;28;20014;-93
2022/06/16 09:56:53;;;;;;;8.73;2.65;;;;;;;;;;5061003;28;20010;-93
2022/06/16 09:59:22;;;;;;;7.18;2.65;;;;;;;;;;5044078;28;20060;-93
2022/06/16 10:01:49;;;;;;;9.20;2.75;;;;;;;;;;5060630;28;20105;-92
2022/06/16 10:04:16;;;;;;;3.28;2.30;;;;;;;;;;5064599;22;20048;-86
2022/06/16 10:07:01;;;;;;;6.78;2.35;;;;;;;;;;5008984;28;20029;-86
2022/06/16 10:09:50;;;;;;;5.93;2.60;;;;;;;;;;5003637;28;20049;-86
2022/06/16 10:12:36;;;;;;;7.85;2.88;;;;;;;;;;4999808;28;20445;-86
2022/06/16 10:15:24;;;;;;;5.80;2.70;;;;;;;;;;5035214;28;20460;-86
2022/06/16 10:17:53;;;;;;;6.78;2.65;;;;;;;;;;5017013;28;20112;-86
2022/06/16 10:20:21;;;;;;;6.53;2.85;;;;;;;;;;5020718;28;20022;-86
2022/06/16 10:22:49;;;;;;;7.75;3.17;;;;;;;;;;5033371;28;20028;-86
2022/06/16 10:25:17;;;;;;;5.40;2.72;;;;;;;;;;5016802;28;20039;-86
2022/06/16 10:27:53;;;;;;;6.07;2.78;;;;;;;;;;5035007;28;20120;-86
2022/06/16 10:30:22;;;;;;;6.53;2.85;;;;;;;;;;5017159;28;20032;-86
2022/06/16 10:32:58;;;;;;;14.63;3.42;;;;;;;;;;5017017;28;20026;-86
2022/06/16 10:35:24;;;;;;;6.68;2.65;;;;;;;;;;5033760;28;20025;-85
2022/06/16 10:37:54;;;;;;;7.00;3.17;;;;;;;;;;5013700;28;20366;-87
2022/06/16 10:40:24;;;;;;;8.50;2.55;;;;;;;;;;5013577;28;20092;-86
2022/06/16 10:42:51;;;;;;;5.35;2.95;;;;;;;;;;5015000;28;20456;-86
2022/06/16 10:45:26;;;;;;;8.15;2.30;;;;;;;;;;5015128;28;20028;-86
2022/06/16 10:47:55;;;;;;;7.45;2.55;;;;;;;;;;5013228;28;20065;-86
2022/06/16 10:50:23;;;;;;;4.07;2.92;;;;;;;;;;5013860;28;20030;-86
2022/06/16 10:52:54;;;;;;;6.00;2.95;;;;;;;;;;5014664;28;20021;-86
2022/06/16 10:55:20;;;;;;;;;;;;;;;;;;5013624;28;20533;-86
2022/06/16 10:57:57;;;;;;;4.03;2.55;;;;;;;;;;4996466;28;19956;-86
2022/06/16 11:00:24;;;;;;;7.03;2.65;;;;;;;;;;5014182;28;20099;-85
2022/06/16 11:03:02;;;;;;;8.77;2.80;;;;;;;;;;5012809;28;20030;-86
2022/06/16 11:05:29;;;;;;;8.55;2.40;;;;;;;;;;5014270;28;20034;-87
2022/06/16 11:08:04;;;;;;;6.55;2.17;;;;;;;;;;5022392;28;20053;-86
2022/06/16 11:10:32;;;;;;;7.82;2.33;;;;;;;;;;5033213;28;20034;-86
2022/06/16 11:12:58;;;;;;;3.40;2.08;;;;;;;;;;5031800;28;20025;-86
2022/06/16 11:15:39;;;;;;;4.63;2.15;;;;;;;;;;5034287;28;20022;-86
2022/06/16 11:18:08;;;;;;;4.63;1.83;;;;;;;;;;5016385;28;20489;-86
2022/06/16 11:20:34;;;;;;;4.10;2.20;;;;;;;;;;5000137;28;20120;-87
2022/06/16 11:23:00;;;;;;;7.00;2.35;;;;;;;;;;5015121;28;20101;-86
2022/06/16 11:25:30;;;;;;;8.27;1.92;;;;;;;;;;5019553;28;20085;-87
2022/06/16 11:28:01;;;;;;;8.23;2.33;;;;;;;;;;5014714;28;20052;-86
2022/06/16 11:30:27;;;;;;;3.13;1.90;;;;;;;;;;5013606;28;20769;-86
2022/06/16 11:32:53;;;;;;;6.50;2.03;;;;;;;;;;4996547;28;20030;-86
2022/06/16 11:35:20;;;;;;;4.90;2.20;;;;;;;;;;4996552;28;20112;-86
2022/06/16 11:37:57;;;;;;;6.78;2.47;;;;;;;;;;4995782;28;20030;-87
2022/06/16 11:40:28;;;;;;;5.10;2.67;;;;;;;;;;4996824;28;20030;-86
2022/06/16 11:43:00;;;;;;;2.72;2.10;;;;;;;;;;5013920;28;20037;-86
2022/06/16 11:45:46;;;;;;;5.55;2.25;;;;;;;;;;5013839;28;20030;-86
2022/06/16 11:48:25;;;;;;;4.53;2.28;;;;;;;;;;5013242;28;20390;-86
2022/06/16 11:51:09;;;;;;;7.60;1.88;;;;;;;;;;4996066;28;20033;-87
2022/06/16 11:53:35;;;;;;;4.15;1.98;;;;;;;;;;4995837;28;20022;-85
2022/06/16 11:56:13;;;;;;;3.60;2.30;;;;;;;;;;4995724;28;20504;-86
2022/06/16 11:58:48;;;;;;;2.72;1.67;;;;;;;;;;5024458;28;20022;-85
2022/06/16 12:01:25;;;;;;;3.03;2.30;;;;;;;;;;5015686;28;20034;-86
2022/06/16 12:04:01;;;;;;;4.60;2.10;;;;;;;;;;4995882;28;20092;-87
2022/06/16 12:06:43;;;;;;;5.43;2.30;;;;;;;;;;4996102;28;20037;-86
2022/06/16 12:09:17;;;;;;;6.30;2.15;;;;;;;;;;5013597;28;20029;-87
2022/06/16 12:12:04;;;;;;;5.57;3.72;;;;;;;;;;4995540;28;20026;-86
2022/06/16 12:14:30;;;;;;;3.55;1.80;;;;;;;;;;4995464;28;20045;-87
2022/06/16 12:16:56;;;;;;;5.85;2.53;;;;;;;;;;4996573;28;20022;-86
2022/06/16 12:19:34;;;;;;;4.40;2.15;;;;;;;;;;5006926;28;20075;-86
2022/06/16 12:22:03;;;;;;;6.15;1.95;;;;;;;;;;5014883;28;20469;-86
2022/06/16 12:24:42;;;;;;;4.13;1.80;;;;;;;;;;5014895;28;20486;-86
2022/06/16 12:27:11;;;;;;;4.88;2.10;;;;;;;;;;5015228;28;20029;-87
2022/06/16 12:29:40;;;;;;;6.93;1.85;;;;;;;;;;5032099;28;20378;-86
2022/06/16 12:32:18;;;;;;;5.20;2.10;;;;;;;;;;5031939;28;20071;-86
2022/06/16 12:34:58;;;;;;;7.85;2.25;;;;;;;;;;5032332;28;20397;-86
2022/06/16 12:37:26;;;;;;;3.83;1.95;;;;;;;;;;5012945;28;20481;-87
2022/06/16 12:39:58;;;;;;;5.15;1.95;;;;;;;;;;5032138;28;20033;-86
2022/06/16 12:42:28;;;;;;;7.63;2.10;;;;;;;;;;5031796;28;20037;-87
2022/06/16 12:45:07;;;;;;;7.43;1.90;;;;;;;;;;5031948;28;20413;-87
2022/06/16 12:47:38;;;;;;;3.05;1.92;;;;;;;;;;5014254;28;20030;-86
2022/06/16 12:50:25;;;;;;;4.60;2.45;;;;;;;;;;5031535;28;20554;-86
2022/06/16 12:53:14;;;;;;;9.18;3.03;;;;;;;;;;5001171;28;20033;-86
2022/06/16 12:55:43;;;;;;;5.57;2.40;;;;;;;;;;5021561;28;20025;-84
2022/06/16 12:58:28;;;;;;;6.57;2.10;;;;;;;;;;5013813;28;20397;-85
2022/06/16 13:00:56;;;;;;;4.22;1.90;;;;;;;;;;5013689;28;20033;-86
2022/06/16 13:03:22;;;;;;;3.55;2.00;;;;;;;;;;5031689;28;20175;-86
2022/06/16 13:05:48;;;;;;;4.47;1.90;;;;;;;;;;5032353;28;20532;-86
2022/06/16 13:08:15;;;;;;;3.53;2.03;;;;;;;;;;5031844;28;20026;-85
2022/06/16 13:10:43;;;;;;;5.45;1.80;;;;;;;;;;5031200;28;20468;-85
2022/06/16 13:13:09;;;;;;;12.13;2.10;;;;;;;;;;5002644;28;20077;-86
2022/06/16 13:15:38;;;;;;;5.13;1.98;;;;;;;;;;5012333;28;20026;-86
2022/06/16 13:18:19;;;;;;;8.20;2.17;;;;;;;;;;4993749;28;20053;-85
2022/06/16 13:20:47;;;;;;;3.95;1.95;;;;;;;;;;5029509;28;20394;-86
2022/06/16 13:23:18;;;;;;;4.00;1.90;;;;;;;;;;5031491;28;20418;-86
2022/06/16 13:25:47;;;;;;;3.83;2.28;;;;;;;;;;5013794;28;20111;-86
2022/06/16 13:28:18;;;;;;;3.88;1.83;;;;;;;;;;5031384;28;20476;-86
2022/06/16 13:31:17;;;;;;;3.10;2.00;;;;;;;;;;5013725;28;20029;-85
2022/06/16 13:33:45;;;;;;;3.85;1.83;;;;;;;;;;4992985;28;20397;-85
2022/06/16 13:36:13;;;;;;;4.32;2.00;;;;;;;;;;5030046;28;20386;-86
2022/06/16 13:38:41;;;;;;;5.75;2.00;;;;;;;;;;5031584;28;20095;-86
2022/06/16 13:41:25;;;;;;;4.68;1.80;;;;;;;;;;5013500;28;20580;-85
2022/06/16 13:44:26;;;;;;;3.65;1.88;;;;;;;;;;5031349;28;20036;-86
2022/06/16 13:46:55;;;;;;;3.92;1.70;;;;;;;;;;4972698;28;20037;-86
2022/06/16 13:49:44;;;;;;;6.03;1.73;;;;;;;;;;5014230;28;20030;-86
2022/06/16 13:52:13;;;;;;;5.32;2.03;;;;;;;;;;5003221;28;20091;-86
2022/06/16 13:54:39;;;;;;;3.47;1.77;;;;;;;;;;5014172;28;20034;-86
2022/06/16 13:57:27;;;;;;;4.10;1.98;;;;;;;;;;5016022;28;20405;-86
2022/06/16 13:59:57;;;;;;;3.47;1.95;;;;;;;;;;5034823;28;20029;-85
2022/06/16 14:02:23;;;;;;;;;;;;;;;;;;5034873;28;20032;-85
2022/06/16 14:04:49;;;;;;;5.70;2.22;;;;;;;;;;5016353;28;19917;-86
2022/06/16 14:07:16;;;;;;;2.70;1.60;;;;;;;;;;5034407;28;20117;-87
2022/06/16 14:09:51;;;;;;;7.00;2.63;;;;;;;;;;5036438;28;20021;-87
2022/06/16 14:12:19;;;;;;;2.10;1.60;;;;;;;;;;5037139;28;20021;-86
2022/06/16 14:14:48;;;;;;;3.83;2.40;;;;;;;;;;5001589;28;20037;-86
2022/06/16 14:17:31;;;;;;;3.55;2.08;;;;;;;;;;4999851;28;20056;-86
2022/06/16 14:20:09;;;;;;;3.78;1.95;;;;;;;;;;5026898;28;20123;-86
2022/06/16 14:22:37;;;;;;;7.47;1.70;;;;;;;;;;5017152;28;20104;-86
2022/06/16 14:25:16;;;;;;;3.38;1.88;;;;;;;;;;5016897;28;20095;-87
2022/06/16 14:28:03;;;;;;;3.65;2.05;;;;;;;;;;5016448;28;20114;-86
2022/06/16 14:30:34;;;;;;;7.72;2.38;;;;;;;;;;5034469;28;20032;-86
2022/06/16 14:33:04;;;;;;;5.32;1.70;;;;;;;;;;5034916;28;20029;-86
2022/06/16 14:35:35;;;;;;;2.50;1.52;;;;;;;;;;5034529;28;20563;-87
2022/06/16 14:38:01;;;;;;;;;;;;;;;;;;5015673;28;20040;-87
2022/06/16 14:40:29;;;;;;;4.57;2.28;;;;;;;;;;5016277;28;19996;-86
2022/06/16 14:42:56;;;;;;;2.38;1.70;;;;;;;;;;5016633;28;20516;-87
2022/06/16 14:45:26;;;;;;;2.90;1.85;;;;;;;;;;5016692;28;20025;-87
2022/06/16 14:48:02;;;;;;;5.82;2.13;;;;;;;;;;5016362;28;20171;-85
2022/06/16 14:50:28;;;;;;;6.47;1.98;;;;;;;;;;5015816;28;20025;-86
2022/06/16 14:52:59;;;;;;;8.30;2.97;;;;;;;;;;5034048;28;20025;-86
2022/06/16 14:55:32;;;;;;;4.10;1.98;;;;;;;;;;5034240;28;20032;-85
2022/06/16 14:58:03;;;;;;;8.35;2.08;;;;;;;;;;5016034;28;20366;-86
2022/06/16 15:00:31;;;;;;;3.05;1.42;;;;;;;;;;5033653;28;20032;-86
2022/06/16 15:03:05;;;;;;;5.20;2.15;;;;;;;;;;5034045;28;20401;-86
2022/06/16 15:05:34;;;;;;;4.50;1.75;;;;;;;;;;5033771;28;20175;-86
2022/06/16 15:08:00;;;;;;;3.13;1.58;;;;;;;;;;5033628;28;20029;-86
2022/06/16 15:10:29;;;;;;;3.72;1.65;;;;;;;;;;5017620;28;20032;-86
2022/06/16 15:12:57;;;;;;;4.75;1.90;;;;;;;;;;5008506;28;20018;-86
2022/06/16 15:15:26;;;;;;;3.42;1.80;;;;;;;;;;4996778;28;20026;-86
2022/06/16 15:18:13;;;;;;;3.40;1.73;;;;;;;;;;5014032;28;20026;-86
2022/06/16 15:20:56;;;;;;;4.55;2.05;;;;;;;;;;5012395;28;20025;-86